sensor_id;sensor_type;location;lat;lon;timestamp;temperature;humidity
17774;DHT22;9011;33.236;-97.118;2022-12-18T00:00:20;7.00;99.90
17774;DHT22;9011;33.236;-97.118;2022-12-18T00:02:49;6.90;99.90
17774;DHT22;9011;33.236;-97.118;2022-12-18T00:05:22;6.80;99.90
17774;DHT22;9011;33.236;-97.118;2022-12-18T00:07:53;6.70;99.90
17774;DHT22;9011;33.236;-97.118;2022-12-18T00:10:23;6.70;99.80
17774;DHT22;9011;33.236;-97.118;2022-12-18T00:12:55;6.50;99.90
17774;DHT22;9011;33.236;-97.118;2022-12-18T00:15:23;6.40;99.90
17774;DHT22;9011;33.236;-97.118;2022-12-18T00:17:52;6.30;99.90
17774;DHT22;9011;33.236;-97.118;2022-12-18T00:20:20;6.20;99.90
17774;DHT22;9011;33.236;-97.118;2022-12-18T00:22:52;6.10;99.90
17774;DHT22;9011;33.236;-97.118;2022-12-18T00:25:22;6.00;99.90
17774;DHT22;9011;33.236;-97.118;2022-12-18T00:27:50;5.90;99.90
17774;DHT22;9011;33.236;-97.118;2022-12-18T00:30:19;5.80;99.90
17774;DHT22;9011;33.236;-97.118;2022-12-18T00:32:47;5.70;99.90
17774;DHT22;9011;33.236;-97.118;2022-12-18T00:35:18;5.50;99.90
17774;DHT22;9011;33.236;-97.118;2022-12-18T00:37:51;5.50;99.90
17774;DHT22;9011;33.236;-97.118;2022-12-18T00:40:23;5.50;99.90
17774;DHT22;9011;33.236;-97.118;2022-12-18T00:42:52;5.40;99.90
17774;DHT22;9011;33.236;-97.118;2022-12-18T00:45:26;5.30;99.90
17774;DHT22;9011;33.236;-97.118;2022-12-18T00:47:54;5.30;99.90
17774;DHT22;9011;33.236;-97.118;2022-12-18T00:50:24;5.20;99.90
17774;DHT22;9011;33.236;-97.118;2022-12-18T00:52:53;5.10;99.90
17774;DHT22;9011;33.236;-97.118;2022-12-18T00:55:23;5.10;99.90
17774;DHT22;9011;33.236;-97.118;2022-12-18T00:57:54;5.00;99.90
17774;DHT22;9011;33.236;-97.118;2022-12-18T01:00:30;4.80;99.90
17774;DHT22;9011;33.236;-97.118;2022-12-18T01:02:58;4.90;99.90
17774;DHT22;9011;33.236;-97.118;2022-12-18T01:05:32;4.80;99.90
17774;DHT22;9011;33.236;-97.118;2022-12-18T01:08:01;4.80;99.90
17774;DHT22;9011;33.236;-97.118;2022-12-18T01:10:34;4.80;99.90
17774;DHT22;9011;33.236;-97.118;2022-12-18T01:13:02;4.70;99.90
17774;DHT22;9011;33.236;-97.118;2022-12-18T01:15:30;4.70;99.90
17774;DHT22;9011;33.236;-97.118;2022-12-18T01:17:59;4.60;99.90
17774;DHT22;9011;33.236;-97.118;2022-12-18T01:20:27;4.60;99.90
17774;DHT22;9011;33.236;-97.118;2022-12-18T01:22:59;4.50;99.90
17774;DHT22;9011;33.236;-97.118;2022-12-18T01:25:32;4.50;99.90
17774;DHT22;9011;33.236;-97.118;2022-12-18T01:28:01;4.40;99.90
17774;DHT22;9011;33.236;-97.118;2022-12-18T01:30:32;4.30;99.90
17774;DHT22;9011;33.236;-97.118;2022-12-18T01:33:04;4.30;99.90
17774;DHT22;9011;33.236;-97.118;2022-12-18T01:35:40;4.30;99.90
17774;DHT22;9011;33.236;-97.118;2022-12-18T01:38:09;4.30;99.90
17774;DHT22;9011;33.236;-97.118;2022-12-18T01:40:39;4.20;99.90
17774;DHT22;9011;33.236;-97.118;2022-12-18T01:43:09;4.20;99.90
17774;DHT22;9011;33.236;-97.118;2022-12-18T01:45:38;4.20;99.90
17774;DHT22;9011;33.236;-97.118;2022-12-18T01:48:08;4.10;99.90
17774;DHT22;9011;33.236;-97.118;2022-12-18T01:50:39;4.10;99.90
17774;DHT22;9011;33.236;-97.118;2022-12-18T01:53:13;4.00;99.90
17774;DHT22;9011;33.236;-97.118;2022-12-18T01:55:48;3.90;99.90
17774;DHT22;9011;33.236;-97.118;2022-12-18T01:58:30;3.90;99.90
17774;DHT22;9011;33.236;-97.118;2022-12-18T02:01:00;3.80;99.90
17774;DHT22;9011;33.236;-97.118;2022-12-18T02:03:30;3.80;99.90
17774;DHT22;9011;33.236;-97.118;2022-12-18T02:06:03;3.80;99.90
17774;DHT22;9011;33.236;-97.118;2022-12-18T02:08:41;3.70;99.90
17774;DHT22;9011;33.236;-97.118;2022-12-18T02:11:21;3.70;99.90
17774;DHT22;9011;33.236;-97.118;2022-12-18T02:13:58;3.70;99.90
17774;DHT22;9011;33.236;-97.118;2022-12-18T02:16:39;3.70;99.90
17774;DHT22;9011;33.236;-97.118;2022-12-18T02:19:26;3.70;99.90
17774;DHT22;9011;33.236;-97.118;2022-12-18T02:22:06;3.70;99.90
17774;DHT22;9011;33.236;-97.118;2022-12-18T02:24:45;3.60;99.90
17774;DHT22;9011;33.236;-97.118;2022-12-18T02:27:17;3.50;99.90
17774;DHT22;9011;33.236;-97.118;2022-12-18T02:29:51;3.50;99.90
17774;DHT22;9011;33.236;-97.118;2022-12-18T02:32:24;3.50;99.90
17774;DHT22;9011;33.236;-97.118;2022-12-18T02:34:57;3.50;99.90
17774;DHT22;9011;33.236;-97.118;2022-12-18T02:37:27;3.50;99.90
17774;DHT22;9011;33.236;-97.118;2022-12-18T02:39:57;3.40;99.90
17774;DHT22;9011;33.236;-97.118;2022-12-18T02:42:28;3.40;99.90
17774;DHT22;9011;33.236;-97.118;2022-12-18T02:44:57;3.30;99.90
17774;DHT22;9011;33.236;-97.118;2022-12-18T02:47:29;3.30;99.90
17774;DHT22;9011;33.236;-97.118;2022-12-18T02:50:05;3.30;99.90
17774;DHT22;9011;33.236;-97.118;2022-12-18T02:52:41;3.30;99.90
17774;DHT22;9011;33.236;-97.118;2022-12-18T02:55:23;3.30;99.90
17774;DHT22;9011;33.236;-97.118;2022-12-18T02:57:58;3.30;99.90
17774;DHT22;9011;33.236;-97.118;2022-12-18T03:00:30;3.20;99.90
17774;DHT22;9011;33.236;-97.118;2022-12-18T03:03:03;3.10;99.90
17774;DHT22;9011;33.236;-97.118;2022-12-18T03:05:36;3.00;99.90
17774;DHT22;9011;33.236;-97.118;2022-12-18T03:08:08;3.00;99.90
17774;DHT22;9011;33.236;-97.118;2022-12-18T03:10:42;2.90;99.90
17774;DHT22;9011;33.236;-97.118;2022-12-18T03:13:18;2.80;99.90
17774;DHT22;9011;33.236;-97.118;2022-12-18T03:15:50;2.90;99.90
17774;DHT22;9011;33.236;-97.118;2022-12-18T03:18:23;2.80;99.90
17774;DHT22;9011;33.236;-97.118;2022-12-18T03:20:56;2.80;99.90
17774;DHT22;9011;33.236;-97.118;2022-12-18T03:23:29;2.70;99.90
17774;DHT22;9011;33.236;-97.118;2022-12-18T03:26:05;2.70;99.90
17774;DHT22;9011;33.236;-97.118;2022-12-18T03:28:38;2.70;99.90
17774;DHT22;9011;33.236;-97.118;2022-12-18T03:31:10;2.80;99.90
17774;DHT22;9011;33.236;-97.118;2022-12-18T03:33:44;2.80;99.90
17774;DHT22;9011;33.236;-97.118;2022-12-18T03:36:15;2.80;99.90
17774;DHT22;9011;33.236;-97.118;2022-12-18T03:38:43;2.80;99.90
17774;DHT22;9011;33.236;-97.118;2022-12-18T03:41:17;2.70;99.90
17774;DHT22;9011;33.236;-97.118;2022-12-18T03:43:54;2.60;99.90
17774;DHT22;9011;33.236;-97.118;2022-12-18T03:46:28;2.60;99.90
17774;DHT22;9011;33.236;-97.118;2022-12-18T03:49:09;2.70;99.90
17774;DHT22;9011;33.236;-97.118;2022-12-18T03:51:44;2.70;99.90
17774;DHT22;9011;33.236;-97.118;2022-12-18T03:54:15;2.60;99.90
17774;DHT22;9011;33.236;-97.118;2022-12-18T03:56:47;2.60;99.90
17774;DHT22;9011;33.236;-97.118;2022-12-18T03:59:19;2.50;99.90
17774;DHT22;9011;33.236;-97.118;2022-12-18T04:01:51;2.60;99.90
17774;DHT22;9011;33.236;-97.118;2022-12-18T04:04:22;2.60;99.90
17774;DHT22;9011;33.236;-97.118;2022-12-18T04:06:52;2.50;99.90
17774;DHT22;9011;33.236;-97.118;2022-12-18T04:09:21;2.50;99.90
17774;DHT22;9011;33.236;-97.118;2022-12-18T04:11:52;2.50;99.90
17774;DHT22;9011;33.236;-97.118;2022-12-18T04:14:22;2.50;99.90
17774;DHT22;9011;33.236;-97.118;2022-12-18T04:16:51;2.60;99.90
17774;DHT22;9011;33.236;-97.118;2022-12-18T04:19:20;2.60;99.90
17774;DHT22;9011;33.236;-97.118;2022-12-18T04:21:48;2.60;99.90
17774;DHT22;9011;33.236;-97.118;2022-12-18T04:24:17;2.50;99.90
17774;DHT22;9011;33.236;-97.118;2022-12-18T04:26:46;2.50;99.90
17774;DHT22;9011;33.236;-97.118;2022-12-18T04:29:14;2.50;99.90
17774;DHT22;9011;33.236;-97.118;2022-12-18T04:42:22;2.40;99.90
17774;DHT22;9011;33.236;-97.118;2022-12-18T04:45:15;2.40;99.90
17774;DHT22;9011;33.236;-97.118;2022-12-18T04:48:30;2.40;99.90
17774;DHT22;9011;33.236;-97.118;2022-12-18T04:51:52;2.40;99.90
17774;DHT22;9011;33.236;-97.118;2022-12-18T04:55:04;2.40;99.90
17774;DHT22;9011;33.236;-97.118;2022-12-18T05:04:39;2.30;99.90
17774;DHT22;9011;33.236;-97.118;2022-12-18T05:07:50;2.00;99.90
17774;DHT22;9011;33.236;-97.118;2022-12-18T05:17:39;1.30;99.90
17774;DHT22;9011;33.236;-97.118;2022-12-18T05:20:38;1.30;99.90
17774;DHT22;9011;33.236;-97.118;2022-12-18T05:23:20;1.20;99.90
17774;DHT22;9011;33.236;-97.118;2022-12-18T05:26:10;1.20;99.90
17774;DHT22;9011;33.236;-97.118;2022-12-18T05:33:02;1.20;99.90
17774;DHT22;9011;33.236;-97.118;2022-12-18T05:36:14;0.90;99.90
17774;DHT22;9011;33.236;-97.118;2022-12-18T05:45:05;0.80;99.90
17774;DHT22;9011;33.236;-97.118;2022-12-18T05:54:40;1.00;99.90
17774;DHT22;9011;33.236;-97.118;2022-12-18T05:57:47;1.00;99.90
17774;DHT22;9011;33.236;-97.118;2022-12-18T06:03:36;0.60;99.90
17774;DHT22;9011;33.236;-97.118;2022-12-18T06:07:40;0.60;99.90
17774;DHT22;9011;33.236;-97.118;2022-12-18T06:10:49;0.60;99.90
17774;DHT22;9011;33.236;-97.118;2022-12-18T06:21:00;0.50;99.90
17774;DHT22;9011;33.236;-97.118;2022-12-18T06:23:29;0.60;99.90
17774;DHT22;9011;33.236;-97.118;2022-12-18T06:26:02;0.70;99.90
17774;DHT22;9011;33.236;-97.118;2022-12-18T06:28:36;0.50;99.90
17774;DHT22;9011;33.236;-97.118;2022-12-18T06:31:20;0.40;99.90
17774;DHT22;9011;33.236;-97.118;2022-12-18T06:38:03;0.50;99.90
17774;DHT22;9011;33.236;-97.118;2022-12-18T06:40:55;0.50;99.90
17774;DHT22;9011;33.236;-97.118;2022-12-18T06:46:58;0.40;99.90
17774;DHT22;9011;33.236;-97.118;2022-12-18T06:49:46;0.50;99.90
17774;DHT22;9011;33.236;-97.118;2022-12-18T06:52:38;0.40;99.90
17774;DHT22;9011;33.236;-97.118;2022-12-18T06:58:41;0.40;99.90
17774;DHT22;9011;33.236;-97.118;2022-12-18T07:01:39;0.20;99.90
17774;DHT22;9011;33.236;-97.118;2022-12-18T07:04:56;0.30;99.90
17774;DHT22;9011;33.236;-97.118;2022-12-18T07:08:00;0.30;99.90
17774;DHT22;9011;33.236;-97.118;2022-12-18T07:10:28;0.30;99.90
17774;DHT22;9011;33.236;-97.118;2022-12-18T07:12:57;0.30;99.90
17774;DHT22;9011;33.236;-97.118;2022-12-18T07:15:25;0.30;99.90
17774;DHT22;9011;33.236;-97.118;2022-12-18T07:17:54;0.30;99.90
17774;DHT22;9011;33.236;-97.118;2022-12-18T07:20:24;0.30;99.90
17774;DHT22;9011;33.236;-97.118;2022-12-18T07:22:52;0.30;99.90
17774;DHT22;9011;33.236;-97.118;2022-12-18T07:25:21;0.30;99.90
17774;DHT22;9011;33.236;-97.118;2022-12-18T07:27:51;0.30;99.90
17774;DHT22;9011;33.236;-97.118;2022-12-18T07:30:22;0.20;99.90
17774;DHT22;9011;33.236;-97.118;2022-12-18T07:33:04;0.20;99.90
17774;DHT22;9011;33.236;-97.118;2022-12-18T07:35:36;0.20;99.90
17774;DHT22;9011;33.236;-97.118;2022-12-18T07:38:31;0.10;99.90
17774;DHT22;9011;33.236;-97.118;2022-12-18T07:41:23;0.20;99.90
17774;DHT22;9011;33.236;-97.118;2022-12-18T07:47:18;0.20;99.90
17774;DHT22;9011;33.236;-97.118;2022-12-18T07:49:46;0.10;99.90
17774;DHT22;9011;33.236;-97.118;2022-12-18T07:52:17;0.00;99.90
17774;DHT22;9011;33.236;-97.118;2022-12-18T07:54:45;0.10;99.90
17774;DHT22;9011;33.236;-97.118;2022-12-18T07:57:15;-0.20;99.90
17774;DHT22;9011;33.236;-97.118;2022-12-18T07:59:44;-0.20;99.90
17774;DHT22;9011;33.236;-97.118;2022-12-18T08:02:13;-0.40;99.90
17774;DHT22;9011;33.236;-97.118;2022-12-18T08:04:42;-0.30;99.90
17774;DHT22;9011;33.236;-97.118;2022-12-18T08:07:30;-0.20;99.90
17774;DHT22;9011;33.236;-97.118;2022-12-18T08:10:29;-0.10;99.90
17774;DHT22;9011;33.236;-97.118;2022-12-18T08:13:27;-0.10;99.90
17774;DHT22;9011;33.236;-97.118;2022-12-18T08:16:10;-0.10;99.90
17774;DHT22;9011;33.236;-97.118;2022-12-18T08:18:54;-0.10;99.90
17774;DHT22;9011;33.236;-97.118;2022-12-18T08:21:37;-0.10;99.90
17774;DHT22;9011;33.236;-97.118;2022-12-18T08:24:10;-0.10;99.90
17774;DHT22;9011;33.236;-97.118;2022-12-18T08:26:38;-0.20;99.90
17774;DHT22;9011;33.236;-97.118;2022-12-18T08:29:09;-0.20;99.90
17774;DHT22;9011;33.236;-97.118;2022-12-18T08:31:38;-0.10;99.90
17774;DHT22;9011;33.236;-97.118;2022-12-18T08:34:07;-0.10;99.90
17774;DHT22;9011;33.236;-97.118;2022-12-18T08:36:40;-0.20;99.90
17774;DHT22;9011;33.236;-97.118;2022-12-18T08:39:18;-0.10;99.90
17774;DHT22;9011;33.236;-97.118;2022-12-18T08:42:31;-0.10;99.90
17774;DHT22;9011;33.236;-97.118;2022-12-18T08:48:11;-0.20;99.90
17774;DHT22;9011;33.236;-97.118;2022-12-18T08:50:59;-0.20;99.90
17774;DHT22;9011;33.236;-97.118;2022-12-18T08:53:31;-0.10;99.90
17774;DHT22;9011;33.236;-97.118;2022-12-18T08:56:27;-0.10;99.90
17774;DHT22;9011;33.236;-97.118;2022-12-18T08:58:59;-0.10;99.90
17774;DHT22;9011;33.236;-97.118;2022-12-18T09:01:28;-0.10;99.90
17774;DHT22;9011;33.236;-97.118;2022-12-18T09:03:59;-0.10;99.90
17774;DHT22;9011;33.236;-97.118;2022-12-18T09:06:28;-0.20;99.90
17774;DHT22;9011;33.236;-97.118;2022-12-18T09:08:57;-0.30;99.90
17774;DHT22;9011;33.236;-97.118;2022-12-18T09:11:28;-0.20;99.90
17774;DHT22;9011;33.236;-97.118;2022-12-18T09:13:57;-0.30;99.90
17774;DHT22;9011;33.236;-97.118;2022-12-18T09:16:29;-0.30;99.90
17774;DHT22;9011;33.236;-97.118;2022-12-18T09:19:02;-0.30;99.90
17774;DHT22;9011;33.236;-97.118;2022-12-18T09:21:34;-0.20;99.90
17774;DHT22;9011;33.236;-97.118;2022-12-18T09:24:08;-0.20;99.90
17774;DHT22;9011;33.236;-97.118;2022-12-18T09:26:44;-0.30;99.90
17774;DHT22;9011;33.236;-97.118;2022-12-18T09:29:38;-0.30;99.90
17774;DHT22;9011;33.236;-97.118;2022-12-18T09:32:17;-0.30;99.90
17774;DHT22;9011;33.236;-97.118;2022-12-18T09:34:46;-0.30;99.90
17774;DHT22;9011;33.236;-97.118;2022-12-18T09:37:17;-0.30;99.90
17774;DHT22;9011;33.236;-97.118;2022-12-18T09:39:46;-0.50;99.90
17774;DHT22;9011;33.236;-97.118;2022-12-18T09:42:21;-0.40;99.90
17774;DHT22;9011;33.236;-97.118;2022-12-18T09:44:57;-0.40;99.90
17774;DHT22;9011;33.236;-97.118;2022-12-18T09:47:34;-0.40;99.90
17774;DHT22;9011;33.236;-97.118;2022-12-18T09:50:13;-0.40;99.90
17774;DHT22;9011;33.236;-97.118;2022-12-18T09:52:46;-0.50;99.90
17774;DHT22;9011;33.236;-97.118;2022-12-18T09:55:24;-0.60;99.90
17774;DHT22;9011;33.236;-97.118;2022-12-18T09:57:58;-0.80;99.90
17774;DHT22;9011;33.236;-97.118;2022-12-18T10:00:34;-0.80;99.90
17774;DHT22;9011;33.236;-97.118;2022-12-18T10:03:08;-0.90;99.90
17774;DHT22;9011;33.236;-97.118;2022-12-18T10:05:53;-0.90;99.90
17774;DHT22;9011;33.236;-97.118;2022-12-18T10:08:54;-1.00;99.90
17774;DHT22;9011;33.236;-97.118;2022-12-18T10:12:00;-1.00;99.90
17774;DHT22;9011;33.236;-97.118;2022-12-18T10:14:54;-1.00;99.90
17774;DHT22;9011;33.236;-97.118;2022-12-18T10:17:28;-0.90;99.90
17774;DHT22;9011;33.236;-97.118;2022-12-18T10:20:01;-0.80;99.90
17774;DHT22;9011;33.236;-97.118;2022-12-18T10:22:46;-0.80;99.90
17774;DHT22;9011;33.236;-97.118;2022-12-18T10:25:22;-0.70;99.90
17774;DHT22;9011;33.236;-97.118;2022-12-18T10:27:54;-0.70;99.90
17774;DHT22;9011;33.236;-97.118;2022-12-18T10:30:26;-0.70;99.90
17774;DHT22;9011;33.236;-97.118;2022-12-18T10:32:54;-0.70;99.90
17774;DHT22;9011;33.236;-97.118;2022-12-18T10:35:28;-0.70;99.90
17774;DHT22;9011;33.236;-97.118;2022-12-18T10:38:05;-0.90;99.90
17774;DHT22;9011;33.236;-97.118;2022-12-18T10:40:51;-1.10;99.90
17774;DHT22;9011;33.236;-97.118;2022-12-18T10:43:28;-1.00;99.90
17774;DHT22;9011;33.236;-97.118;2022-12-18T10:46:12;-0.90;99.90
17774;DHT22;9011;33.236;-97.118;2022-12-18T10:48:53;-0.90;99.90
17774;DHT22;9011;33.236;-97.118;2022-12-18T10:51:24;-0.80;99.90
17774;DHT22;9011;33.236;-97.118;2022-12-18T10:53:56;-0.80;99.90
17774;DHT22;9011;33.236;-97.118;2022-12-18T10:56:26;-0.80;99.90
17774;DHT22;9011;33.236;-97.118;2022-12-18T10:59:20;-1.00;99.90
17774;DHT22;9011;33.236;-97.118;2022-12-18T11:01:55;-1.10;99.90
17774;DHT22;9011;33.236;-97.118;2022-12-18T11:04:24;-1.20;99.90
17774;DHT22;9011;33.236;-97.118;2022-12-18T11:06:58;-1.10;99.90
17774;DHT22;9011;33.236;-97.118;2022-12-18T11:09:28;-1.10;99.90
17774;DHT22;9011;33.236;-97.118;2022-12-18T11:11:59;-1.10;99.90
17774;DHT22;9011;33.236;-97.118;2022-12-18T11:14:30;-1.20;99.90
17774;DHT22;9011;33.236;-97.118;2022-12-18T11:17:02;-1.20;99.90
17774;DHT22;9011;33.236;-97.118;2022-12-18T11:19:33;-1.20;99.90
17774;DHT22;9011;33.236;-97.118;2022-12-18T11:22:57;-1.30;99.90
17774;DHT22;9011;33.236;-97.118;2022-12-18T11:25:21;-1.40;99.90
17774;DHT22;9011;33.236;-97.118;2022-12-18T11:28:00;-1.40;99.90
17774;DHT22;9011;33.236;-97.118;2022-12-18T11:30:39;-1.40;99.90
17774;DHT22;9011;33.236;-97.118;2022-12-18T11:33:29;-1.30;99.90
17774;DHT22;9011;33.236;-97.118;2022-12-18T11:36:13;-1.30;99.90
17774;DHT22;9011;33.236;-97.118;2022-12-18T11:39:12;-1.20;99.90
17774;DHT22;9011;33.236;-97.118;2022-12-18T11:42:02;-1.20;99.90
17774;DHT22;9011;33.236;-97.118;2022-12-18T11:44:50;-1.10;99.90
17774;DHT22;9011;33.236;-97.118;2022-12-18T11:47:28;-1.20;99.90
17774;DHT22;9011;33.236;-97.118;2022-12-18T11:50:02;-1.20;99.90
17774;DHT22;9011;33.236;-97.118;2022-12-18T11:52:36;-1.30;99.90
17774;DHT22;9011;33.236;-97.118;2022-12-18T11:55:11;-1.40;99.90
17774;DHT22;9011;33.236;-97.118;2022-12-18T11:57:58;-1.40;99.90
17774;DHT22;9011;33.236;-97.118;2022-12-18T12:00:29;-1.30;99.90
17774;DHT22;9011;33.236;-97.118;2022-12-18T12:03:33;-1.30;99.90
17774;DHT22;9011;33.236;-97.118;2022-12-18T12:06:14;-1.20;99.90
17774;DHT22;9011;33.236;-97.118;2022-12-18T12:09:01;-1.20;99.90
17774;DHT22;9011;33.236;-97.118;2022-12-18T12:11:39;-1.20;99.90
17774;DHT22;9011;33.236;-97.118;2022-12-18T12:14:23;-1.20;99.90
17774;DHT22;9011;33.236;-97.118;2022-12-18T12:16:58;-1.20;99.90
17774;DHT22;9011;33.236;-97.118;2022-12-18T12:19:37;-1.40;99.90
17774;DHT22;9011;33.236;-97.118;2022-12-18T12:22:17;-1.40;99.90
17774;DHT22;9011;33.236;-97.118;2022-12-18T12:24:54;-1.40;99.90
17774;DHT22;9011;33.236;-97.118;2022-12-18T12:27:35;-1.30;99.90
17774;DHT22;9011;33.236;-97.118;2022-12-18T12:30:18;-1.40;99.90
17774;DHT22;9011;33.236;-97.118;2022-12-18T12:33:02;-1.30;99.90
17774;DHT22;9011;33.236;-97.118;2022-12-18T12:35:42;-1.30;99.90
17774;DHT22;9011;33.236;-97.118;2022-12-18T12:38:17;-1.40;99.90
17774;DHT22;9011;33.236;-97.118;2022-12-18T12:40:49;-1.50;99.90
17774;DHT22;9011;33.236;-97.118;2022-12-18T12:43:25;-1.70;99.90
17774;DHT22;9011;33.236;-97.118;2022-12-18T12:45:56;-1.70;99.90
17774;DHT22;9011;33.236;-97.118;2022-12-18T12:48:36;-1.60;99.90
17774;DHT22;9011;33.236;-97.118;2022-12-18T12:51:12;-1.50;99.90
17774;DHT22;9011;33.236;-97.118;2022-12-18T12:53:43;-1.50;99.90
17774;DHT22;9011;33.236;-97.118;2022-12-18T12:56:14;-1.60;99.90
17774;DHT22;9011;33.236;-97.118;2022-12-18T12:58:50;-1.70;99.90
17774;DHT22;9011;33.236;-97.118;2022-12-18T13:01:28;-1.70;99.90
17774;DHT22;9011;33.236;-97.118;2022-12-18T13:04:07;-1.60;99.90
17774;DHT22;9011;33.236;-97.118;2022-12-18T13:06:43;-1.50;99.90
17774;DHT22;9011;33.236;-97.118;2022-12-18T13:09:15;-1.40;99.90
17774;DHT22;9011;33.236;-97.118;2022-12-18T13:11:45;-1.50;99.90
17774;DHT22;9011;33.236;-97.118;2022-12-18T13:14:32;-1.50;99.90
17774;DHT22;9011;33.236;-97.118;2022-12-18T13:17:25;-1.40;99.90
17774;DHT22;9011;33.236;-97.118;2022-12-18T13:20:11;-1.40;99.90
17774;DHT22;9011;33.236;-97.118;2022-12-18T13:22:43;-1.40;99.90
17774;DHT22;9011;33.236;-97.118;2022-12-18T13:25:34;-1.50;99.90
17774;DHT22;9011;33.236;-97.118;2022-12-18T13:28:11;-1.40;99.90
17774;DHT22;9011;33.236;-97.118;2022-12-18T13:31:01;-1.40;99.90
17774;DHT22;9011;33.236;-97.118;2022-12-18T13:33:50;-1.60;99.90
17774;DHT22;9011;33.236;-97.118;2022-12-18T13:36:30;-1.70;99.90
17774;DHT22;9011;33.236;-97.118;2022-12-18T13:42:44;-1.60;99.90
17774;DHT22;9011;33.236;-97.118;2022-12-18T13:45:44;-1.50;99.90
17774;DHT22;9011;33.236;-97.118;2022-12-18T13:48:21;-1.50;99.90
17774;DHT22;9011;33.236;-97.118;2022-12-18T13:51:07;-1.50;99.90
17774;DHT22;9011;33.236;-97.118;2022-12-18T13:53:42;-1.60;99.90
17774;DHT22;9011;33.236;-97.118;2022-12-18T13:56:16;-1.50;99.90
17774;DHT22;9011;33.236;-97.118;2022-12-18T13:58:46;-1.30;99.90
17774;DHT22;9011;33.236;-97.118;2022-12-18T14:01:30;-1.30;99.90
17774;DHT22;9011;33.236;-97.118;2022-12-18T14:04:10;-1.10;99.90
17774;DHT22;9011;33.236;-97.118;2022-12-18T14:06:38;-1.00;99.90
17774;DHT22;9011;33.236;-97.118;2022-12-18T14:09:14;-1.00;99.90
17774;DHT22;9011;33.236;-97.118;2022-12-18T14:11:47;-0.90;99.90
17774;DHT22;9011;33.236;-97.118;2022-12-18T14:14:18;-0.90;99.90
17774;DHT22;9011;33.236;-97.118;2022-12-18T14:16:47;-0.80;99.90
17774;DHT22;9011;33.236;-97.118;2022-12-18T14:19:17;-0.70;99.90
17774;DHT22;9011;33.236;-97.118;2022-12-18T14:21:47;-0.60;99.90
17774;DHT22;9011;33.236;-97.118;2022-12-18T14:24:17;-0.50;99.90
17774;DHT22;9011;33.236;-97.118;2022-12-18T14:26:47;-0.40;99.90
17774;DHT22;9011;33.236;-97.118;2022-12-18T14:29:23;-0.30;99.90
17774;DHT22;9011;33.236;-97.118;2022-12-18T14:32:10;-0.20;99.90
17774;DHT22;9011;33.236;-97.118;2022-12-18T14:34:39;-0.10;99.90
17774;DHT22;9011;33.236;-97.118;2022-12-18T14:37:10;0.10;99.90
17774;DHT22;9011;33.236;-97.118;2022-12-18T14:39:39;0.20;99.90
17774;DHT22;9011;33.236;-97.118;2022-12-18T14:42:11;0.30;99.90
17774;DHT22;9011;33.236;-97.118;2022-12-18T14:44:41;0.60;99.90
17774;DHT22;9011;33.236;-97.118;2022-12-18T14:47:14;0.80;99.90
17774;DHT22;9011;33.236;-97.118;2022-12-18T14:49:43;1.00;99.90
17774;DHT22;9011;33.236;-97.118;2022-12-18T14:52:23;1.20;99.90
17774;DHT22;9011;33.236;-97.118;2022-12-18T14:54:54;1.50;99.90
17774;DHT22;9011;33.236;-97.118;2022-12-18T14:57:24;1.60;99.90
17774;DHT22;9011;33.236;-97.118;2022-12-18T15:00:05;1.80;99.90
17774;DHT22;9011;33.236;-97.118;2022-12-18T15:02:35;2.10;99.90
17774;DHT22;9011;33.236;-97.118;2022-12-18T15:05:14;2.40;99.90
17774;DHT22;9011;33.236;-97.118;2022-12-18T15:07:45;2.60;99.90
17774;DHT22;9011;33.236;-97.118;2022-12-18T15:10:16;2.80;99.90
17774;DHT22;9011;33.236;-97.118;2022-12-18T15:12:45;2.90;99.90
17774;DHT22;9011;33.236;-97.118;2022-12-18T15:15:47;3.20;99.90
17774;DHT22;9011;33.236;-97.118;2022-12-18T15:18:17;3.40;99.90
17774;DHT22;9011;33.236;-97.118;2022-12-18T15:20:48;3.60;99.90
17774;DHT22;9011;33.236;-97.118;2022-12-18T15:23:21;3.80;99.90
17774;DHT22;9011;33.236;-97.118;2022-12-18T15:25:56;4.00;99.90
17774;DHT22;9011;33.236;-97.118;2022-12-18T15:28:28;4.20;99.90
17774;DHT22;9011;33.236;-97.118;2022-12-18T15:31:03;4.50;99.90
17774;DHT22;9011;33.236;-97.118;2022-12-18T15:33:34;4.70;99.90
17774;DHT22;9011;33.236;-97.118;2022-12-18T15:36:04;4.90;99.90
17774;DHT22;9011;33.236;-97.118;2022-12-18T15:38:33;5.10;99.90
17774;DHT22;9011;33.236;-97.118;2022-12-18T15:41:02;5.30;99.90
17774;DHT22;9011;33.236;-97.118;2022-12-18T15:43:31;5.50;99.90
17774;DHT22;9011;33.236;-97.118;2022-12-18T15:46:04;5.70;99.90
17774;DHT22;9011;33.236;-97.118;2022-12-18T15:48:34;5.90;99.90
17774;DHT22;9011;33.236;-97.118;2022-12-18T15:51:02;6.00;99.90
17774;DHT22;9011;33.236;-97.118;2022-12-18T15:53:33;6.20;99.90
17774;DHT22;9011;33.236;-97.118;2022-12-18T15:56:01;6.30;99.90
17774;DHT22;9011;33.236;-97.118;2022-12-18T15:58:46;6.60;99.90
17774;DHT22;9011;33.236;-97.118;2022-12-18T16:01:16;6.80;99.90
17774;DHT22;9011;33.236;-97.118;2022-12-18T16:03:45;7.00;99.90
17774;DHT22;9011;33.236;-97.118;2022-12-18T16:06:13;7.10;99.90
17774;DHT22;9011;33.236;-97.118;2022-12-18T16:08:42;7.20;99.90
17774;DHT22;9011;33.236;-97.118;2022-12-18T16:11:20;7.40;99.90
17774;DHT22;9011;33.236;-97.118;2022-12-18T16:14:05;7.50;99.90
17774;DHT22;9011;33.236;-97.118;2022-12-18T16:16:35;7.60;99.90
17774;DHT22;9011;33.236;-97.118;2022-12-18T16:19:04;7.80;99.90
17774;DHT22;9011;33.236;-97.118;2022-12-18T16:21:32;7.90;99.90
17774;DHT22;9011;33.236;-97.118;2022-12-18T16:24:01;8.10;99.90
17774;DHT22;9011;33.236;-97.118;2022-12-18T16:26:31;8.20;99.90
17774;DHT22;9011;33.236;-97.118;2022-12-18T16:28:59;8.40;99.90
17774;DHT22;9011;33.236;-97.118;2022-12-18T16:31:28;8.40;99.90
17774;DHT22;9011;33.236;-97.118;2022-12-18T16:34:20;8.50;99.90
17774;DHT22;9011;33.236;-97.118;2022-12-18T16:36:49;8.70;99.90
17774;DHT22;9011;33.236;-97.118;2022-12-18T16:39:18;8.80;99.90
17774;DHT22;9011;33.236;-97.118;2022-12-18T16:41:47;9.00;99.90
17774;DHT22;9011;33.236;-97.118;2022-12-18T16:44:15;9.10;99.90
17774;DHT22;9011;33.236;-97.118;2022-12-18T16:46:44;9.20;99.90
17774;DHT22;9011;33.236;-97.118;2022-12-18T16:49:13;9.40;99.90
17774;DHT22;9011;33.236;-97.118;2022-12-18T16:51:45;9.50;99.90
17774;DHT22;9011;33.236;-97.118;2022-12-18T16:54:13;9.60;99.90
17774;DHT22;9011;33.236;-97.118;2022-12-18T16:56:42;9.80;99.90
17774;DHT22;9011;33.236;-97.118;2022-12-18T16:59:12;10.00;99.90
17774;DHT22;9011;33.236;-97.118;2022-12-18T17:01:40;10.10;99.90
17774;DHT22;9011;33.236;-97.118;2022-12-18T17:04:09;10.20;99.50
17774;DHT22;9011;33.236;-97.118;2022-12-18T17:06:40;10.20;99.40
17774;DHT22;9011;33.236;-97.118;2022-12-18T17:09:11;10.20;99.50
17774;DHT22;9011;33.236;-97.118;2022-12-18T17:11:40;10.40;98.60
17774;DHT22;9011;33.236;-97.118;2022-12-18T17:14:11;10.40;96.60
17774;DHT22;9011;33.236;-97.118;2022-12-18T17:16:40;10.40;97.10
17774;DHT22;9011;33.236;-97.118;2022-12-18T17:19:09;10.60;96.10
17774;DHT22;9011;33.236;-97.118;2022-12-18T17:21:38;10.70;96.00
17774;DHT22;9011;33.236;-97.118;2022-12-18T17:24:06;10.70;96.40
17774;DHT22;9011;33.236;-97.118;2022-12-18T17:26:37;10.90;96.20
17774;DHT22;9011;33.236;-97.118;2022-12-18T17:29:05;11.00;96.80
17774;DHT22;9011;33.236;-97.118;2022-12-18T17:31:34;10.90;96.30
17774;DHT22;9011;33.236;-97.118;2022-12-18T17:34:02;11.00;96.30